Time;durP1;ratioP1;P1;durP2;ratioP2;P2;SDS_P1;SDS_P2;PMS_P1;PMS_P2;Temp;Humidity;BMP_temperature;BMP_pressure;BME280_temperature;BME280_humidity;BME280_pressure;Samples;Min_cycle;Max_cycle;Signal;HPM_P1;HPM_P2
2022/08/28 00:01:33;;;;;;;11.80;4.97;;;;;;;14.16;78.86;101797.56;5113156;28;20031;-45
2022/08/28 00:03:59;;;;;;;12.27;5.53;;;;;;;14.13;79.18;101800.94;5113139;28;20080;-46
2022/08/28 00:06:26;;;;;;;12.07;5.28;;;;;;;14.13;78.99;101800.94;5112223;28;20508;-43
2022/08/28 00:08:51;;;;;;;12.98;5.85;;;;;;;14.13;79.04;101800.09;5113258;28;20031;-46
2022/08/28 00:11:16;;;;;;;16.42;5.60;;;;;;;14.11;79.05;101805.22;5113150;28;20031;-45
2022/08/28 00:13:42;;;;;;;12.80;4.70;;;;;;;14.09;79.17;101806.88;5112300;28;20024;-47
2022/08/28 00:16:08;;;;;;;14.30;5.63;;;;;;;14.04;79.53;101803.28;5113290;28;20419;-46
2022/08/28 00:18:34;;;;;;;15.32;5.85;;;;;;;14.00;79.63;101801.41;5112972;28;20020;-46
2022/08/28 00:20:59;;;;;;;14.30;5.60;;;;;;;13.98;79.69;101801.38;5112729;28;20034;-45
2022/08/28 00:23:25;;;;;;;20.23;6.20;;;;;;;13.96;79.71;101804.75;5117171;28;20054;-47
2022/08/28 00:25:51;;;;;;;13.80;5.65;;;;;;;13.92;80.00;101805.50;5116978;28;20106;-46
2022/08/28 00:28:17;;;;;;;14.73;5.70;;;;;;;13.88;80.09;101806.22;5116448;28;20031;-44
2022/08/28 00:30:47;;;;;;;16.45;5.65;;;;;;;13.80;80.53;101803.38;5116967;28;20038;-45
2022/08/28 00:33:20;;;;;;;14.55;5.78;;;;;;;13.75;80.75;101805.84;5117296;28;20027;-48
2022/08/28 00:35:46;;;;;;;12.07;5.60;;;;;;;13.70;80.94;101810.00;5116181;28;20028;-48
2022/08/28 00:38:12;;;;;;;16.50;6.00;;;;;;;13.66;81.27;101808.16;5116675;28;20051;-45
2022/08/28 00:40:41;;;;;;;14.57;6.03;;;;;;;13.64;81.53;101807.19;5116791;28;20038;-48
2022/08/28 00:43:07;;;;;;;14.23;6.20;;;;;;;13.60;81.69;101811.41;5116112;28;20031;-47
2022/08/28 00:45:33;;;;;;;18.75;5.70;;;;;;;13.61;82.12;101814.88;5116440;28;20096;-48
2022/08/28 00:48:00;;;;;;;14.45;5.82;;;;;;;13.57;82.45;101815.59;5115978;27;20023;-46
2022/08/28 00:52:04;;;;;;;16.85;5.70;;;;;;;13.55;82.12;101817.28;5116447;28;20377;-43
2022/08/28 00:53:15;;;;;;;19.38;5.55;;;;;;;13.51;82.38;101805.91;5116667;28;20039;-47
2022/08/28 00:55:41;;;;;;;17.25;5.30;;;;;;;13.53;82.55;101803.38;5115691;28;20027;-46
2022/08/28 00:58:08;;;;;;;15.15;5.57;;;;;;;13.53;83.00;101808.56;5116673;28;20020;-45
2022/08/28 01:00:36;;;;;;;15.38;6.25;;;;;;;13.48;82.83;101814.47;5116245;28;20107;-46
2022/08/28 01:03:04;;;;;;;14.57;5.85;;;;;;;13.49;83.55;101815.34;5115512;28;20464;-48
2022/08/28 01:05:30;;;;;;;;;;;;;;;13.58;80.48;101817.34;5116476;28;20030;-48
2022/08/28 01:07:57;;;;;;;14.52;6.38;;;;;;;13.46;83.40;101821.28;5116275;28;20006;-45
2022/08/28 01:10:25;;;;;;;17.27;6.32;;;;;;;13.46;83.55;101825.59;5115445;28;20036;-46
2022/08/28 01:12:53;;;;;;;17.00;5.75;;;;;;;13.47;83.62;101823.06;5116388;28;20024;-44
2022/08/28 01:15:20;;;;;;;;;;;;;;;13.58;81.22;101827.72;5116548;28;20058;-42
2022/08/28 01:17:50;;;;;;;15.70;5.65;;;;;;;13.50;83.68;101830.94;5115202;28;19916;-46
2022/08/28 01:20:19;;;;;;;14.80;5.78;;;;;;;13.47;83.93;101829.97;5116575;28;20072;-47
2022/08/28 01:23:13;;;;;;;15.60;5.97;;;;;;;13.47;83.88;101823.06;5116187;28;20123;-47
2022/08/28 01:25:39;;;;;;;16.17;5.35;;;;;;;13.45;84.31;101819.56;5115811;28;20123;-47
2022/08/28 01:28:10;;;;;;;14.35;5.85;;;;;;;13.44;84.50;101825.56;5115922;28;20028;-45
2022/08/28 01:30:38;;;;;;;17.52;6.35;;;;;;;13.40;84.52;101833.16;5115084;28;20077;-45
2022/08/28 01:33:03;;;;;;;15.00;5.85;;;;;;;13.38;84.79;101825.34;5114971;28;20425;-44
2022/08/28 01:35:32;;;;;;;17.05;5.97;;;;;;;13.36;84.92;101823.50;5115613;28;20482;-48
2022/08/28 01:37:58;;;;;;;14.10;5.90;;;;;;;13.32;85.18;101830.28;5114901;28;20115;-47
2022/08/28 01:40:35;;;;;;;18.50;6.50;;;;;;;13.29;85.52;101830.19;5115672;28;20026;-47
2022/08/28 01:43:22;;;;;;;14.32;5.60;;;;;;;13.27;85.35;101829.25;5115660;28;20100;-45
2022/08/28 01:45:52;;;;;;;13.50;6.15;;;;;;;13.22;85.70;101838.56;5114941;28;20023;-46
2022/08/28 01:48:18;;;;;;;16.80;5.55;;;;;;;13.21;85.88;101836.78;5115630;28;20035;-47
2022/08/28 01:50:44;;;;;;;14.38;5.55;;;;;;;13.16;86.43;101836.66;5115260;28;20058;-43
2022/08/28 01:53:13;;;;;;;14.73;5.68;;;;;;;13.15;86.05;101840.94;5114649;28;20058;-46
2022/08/28 01:55:39;;;;;;;15.38;5.82;;;;;;;13.11;86.32;101833.88;5115114;28;20032;-45
2022/08/28 01:58:05;;;;;;;12.73;5.40;;;;;;;13.10;86.46;101844.19;5115425;28;20061;-45
2022/08/28 02:00:31;;;;;;;19.17;5.97;;;;;;;13.07;86.53;101839.78;5114712;28;20066;-46
2022/08/28 02:02:58;;;;;;;17.33;5.85;;;;;;;13.00;86.77;101835.22;5115350;28;20435;-45
2022/08/28 02:05:27;;;;;;;15.77;6.17;;;;;;;12.99;86.86;101838.66;5114367;27;20028;-44
2022/08/28 02:07:52;;;;;;;13.27;6.20;;;;;;;12.88;87.50;101842.56;5115147;28;20023;-48
2022/08/28 02:10:21;;;;;;;16.85;6.38;;;;;;;12.82;87.63;101850.94;5115382;28;20425;-46
2022/08/28 02:12:48;;;;;;;13.30;6.38;;;;;;;12.73;87.63;101848.94;5114326;28;20023;-45
2022/08/28 02:15:13;;;;;;;16.58;6.38;;;;;;;12.64;88.47;101845.97;5115249;28;20094;-45
2022/08/28 02:17:38;;;;;;;16.67;6.43;;;;;;;12.55;88.66;101856.00;5114783;28;20058;-44
2022/08/28 02:20:04;;;;;;;17.05;6.32;;;;;;;12.51;89.23;101853.31;5114069;28;20030;-47
2022/08/28 02:22:30;;;;;;;20.83;6.95;;;;;;;12.45;89.76;101855.66;5114361;28;20059;-47
2022/08/28 02:24:55;;;;;;;15.60;6.53;;;;;;;12.42;90.07;101857.22;5114951;28;20030;-46
2022/08/28 02:27:20;;;;;;;13.32;6.18;;;;;;;12.33;90.33;101848.31;5113983;28;20469;-47
2022/08/28 02:29:46;;;;;;;15.25;5.95;;;;;;;12.30;90.57;101847.31;5114679;28;20019;-47
2022/08/28 02:32:11;;;;;;;16.50;6.82;;;;;;;12.26;90.74;101854.06;5114742;28;20463;-46
2022/08/28 02:34:38;;;;;;;15.77;6.57;;;;;;;12.22;91.23;101859.94;5113674;27;20520;-46
2022/08/28 02:37:03;;;;;;;13.88;6.45;;;;;;;12.22;91.16;101862.50;5114930;28;20467;-43
2022/08/28 02:39:28;;;;;;;15.38;6.45;;;;;;;12.13;91.62;101860.44;5114151;28;20081;-45
2022/08/28 02:41:54;;;;;;;13.63;6.20;;;;;;;12.08;91.89;101856.78;5114108;28;20027;-47
2022/08/28 02:44:19;;;;;;;17.50;6.10;;;;;;;12.06;92.06;101857.56;5114497;28;20062;-45
2022/08/28 02:46:44;;;;;;;16.80;6.45;;;;;;;12.02;92.58;101852.28;5114353;28;20024;-47
2022/08/28 02:49:10;;;;;;;15.20;6.30;;;;;;;12.02;92.64;101861.75;5113552;28;20115;-46
2022/08/28 02:51:35;;;;;;;18.42;6.53;;;;;;;11.99;92.85;101866.78;5114110;28;20020;-46
2022/08/28 02:54:01;;;;;;;14.98;5.82;;;;;;;11.96;92.82;101853.75;5114194;28;20032;-45
2022/08/28 02:56:27;;;;;;;14.38;5.50;;;;;;;11.92;93.38;101859.56;5113467;28;20067;-46
2022/08/28 02:58:53;;;;;;;18.98;5.65;;;;;;;11.89;93.30;101854.28;5114404;28;20047;-45
2022/08/28 03:01:18;;;;;;;16.92;6.53;;;;;;;11.86;93.87;101855.03;5114173;28;20027;-43
2022/08/28 03:03:43;;;;;;;15.05;6.38;;;;;;;11.79;93.93;101859.06;5113245;28;20127;-45
2022/08/28 03:06:11;;;;;;;16.88;6.88;;;;;;;11.72;94.11;101857.03;5113987;28;20024;-44
2022/08/28 03:08:37;;;;;;;16.05;7.03;;;;;;;11.69;94.30;101851.75;5113206;28;20030;-47
2022/08/28 03:11:02;;;;;;;16.33;6.47;;;;;;;11.65;94.73;101849.88;5114149;28;20024;-44
2022/08/28 03:13:28;;;;;;;17.70;6.82;;;;;;;11.63;95.02;101854.97;5113707;28;20050;-46
2022/08/28 03:15:54;;;;;;;17.73;6.50;;;;;;;11.64;95.31;101850.69;5113195;28;20023;-45
2022/08/28 03:18:20;;;;;;;14.52;6.93;;;;;;;11.58;95.85;101858.16;5113782;28;20016;-47
2022/08/28 03:20:45;;;;;;;15.15;6.50;;;;;;;11.56;95.68;101859.81;5113665;28;20046;-47
2022/08/28 03:23:27;;;;;;;15.38;6.78;;;;;;;11.58;96.15;101861.66;5112911;28;20352;-46
2022/08/28 03:25:55;;;;;;;18.65;7.35;;;;;;;11.51;96.30;101855.34;5113870;28;20034;-42
2022/08/28 03:28:21;;;;;;;15.02;6.82;;;;;;;11.51;96.05;101857.91;5113672;28;20149;-45
2022/08/28 03:30:47;;;;;;;17.83;6.82;;;;;;;11.48;96.36;101862.97;5112854;28;20043;-46
2022/08/28 03:33:12;;;;;;;15.85;6.38;;;;;;;11.48;96.84;101857.78;5113543;28;20505;-43
2022/08/28 03:35:38;;;;;;;20.35;7.10;;;;;;;11.50;96.88;101865.59;5113531;28;20015;-44
2022/08/28 03:38:03;;;;;;;16.15;6.53;;;;;;;11.45;96.78;101862.84;5112713;28;20508;-45
2022/08/28 03:40:29;;;;;;;15.32;6.57;;;;;;;11.46;97.45;101868.88;5113353;28;20059;-47
2022/08/28 03:42:55;;;;;;;17.73;6.28;;;;;;;11.33;96.98;101872.63;5113362;28;20050;-47
2022/08/28 03:45:21;;;;;;;19.08;6.53;;;;;;;11.42;97.44;101878.19;5112347;28;20028;-46
2022/08/28 03:47:46;;;;;;;18.92;6.50;;;;;;;11.35;97.73;101883.91;5113358;28;20027;-47
2022/08/28 03:50:12;;;;;;;18.58;6.60;;;;;;;11.31;97.74;101879.41;5113600;28;20024;-46
2022/08/28 03:52:39;;;;;;;15.52;6.97;;;;;;;11.30;97.91;101881.13;5112533;28;20078;-47
2022/08/28 03:55:07;;;;;;;13.10;6.65;;;;;;;11.28;98.17;101879.28;5113509;28;20024;-44
2022/08/28 03:57:34;;;;;;;15.13;7.13;;;;;;;11.28;98.32;101885.31;5112750;28;20028;-45
2022/08/28 03:59:59;;;;;;;14.63;6.22;;;;;;;11.24;98.16;101878.28;5112506;28;20023;-46
2022/08/28 04:02:24;;;;;;;18.52;6.30;;;;;;;11.19;98.21;101887.50;5112990;28;20028;-45
2022/08/28 04:04:50;;;;;;;15.68;6.40;;;;;;;11.18;98.73;101889.22;5112342;28;20038;-45
2022/08/28 04:07:17;;;;;;;16.17;7.20;;;;;;;11.16;98.99;101885.69;5113486;28;20023;-46
2022/08/28 04:09:43;;;;;;;19.90;7.07;;;;;;;11.15;98.99;101891.66;5113111;28;20051;-43
2022/08/28 04:12:08;;;;;;;14.65;6.60;;;;;;;11.16;99.22;101884.81;5112447;28;20502;-43
2022/08/28 04:14:34;;;;;;;18.00;6.53;;;;;;;11.17;99.36;101886.56;5113053;28;20030;-44
2022/08/28 04:17:00;;;;;;;16.02;6.90;;;;;;;11.16;99.29;101890.84;5113104;28;20068;-43
2022/08/28 04:19:25;;;;;;;17.88;7.35;;;;;;;11.07;99.33;101887.84;5112264;28;20020;-42
2022/08/28 04:21:51;;;;;;;17.85;6.97;;;;;;;11.06;99.52;101883.50;5113051;28;20383;-44
2022/08/28 04:24:16;;;;;;;13.88;6.47;;;;;;;11.06;99.72;101883.50;5113189;28;20042;-47
2022/08/28 04:26:42;;;;;;;15.50;6.63;;;;;;;11.04;99.80;101886.03;5112063;28;20054;-45
2022/08/28 04:29:07;;;;;;;16.77;7.75;;;;;;;11.00;99.71;101884.13;5112967;28;20020;-44
2022/08/28 04:31:33;;;;;;;16.10;7.00;;;;;;;10.99;99.84;101891.81;5112541;28;20031;-46
2022/08/28 04:34:04;;;;;;;14.55;7.40;;;;;;;10.90;100.00;101897.44;5112350;28;20023;-47
2022/08/28 04:36:31;;;;;;;14.05;7.38;;;;;;;10.94;100.00;101896.75;5112644;28;20032;-44
2022/08/28 04:38:57;;;;;;;17.88;7.22;;;;;;;10.95;100.00;101895.03;5112853;28;20118;-44
2022/08/28 04:41:22;;;;;;;23.30;8.02;;;;;;;10.90;100.00;101896.53;5112335;28;20137;-44
2022/08/28 04:43:49;;;;;;;21.05;7.95;;;;;;;10.87;100.00;101900.75;5112807;28;20110;-47
2022/08/28 04:46:15;;;;;;;15.93;7.60;;;;;;;10.83;100.00;101891.13;5112816;28;20416;-46
2022/08/28 04:48:41;;;;;;;18.00;7.53;;;;;;;10.81;100.00;101910.78;5112011;28;20102;-42
2022/08/28 04:51:09;;;;;;;15.52;7.60;;;;;;;10.93;100.00;101907.00;5112744;28;20503;-46
2022/08/28 04:53:36;;;;;;;16.40;7.07;;;;;;;10.88;100.00;101901.63;5112450;28;20538;-42
2022/08/28 04:56:05;;;;;;;15.63;6.97;;;;;;;10.80;100.00;101909.00;5112040;28;20157;-44
2022/08/28 04:58:33;;;;;;;18.27;7.50;;;;;;;10.75;100.00;101907.91;5112480;28;20149;-45
2022/08/28 05:01:07;;;;;;;16.13;7.72;;;;;;;10.75;100.00;101910.50;5112403;28;20028;-42
2022/08/28 05:03:34;;;;;;;19.05;7.75;;;;;;;10.75;100.00;101907.03;5112583;28;20024;-41
2022/08/28 05:05:59;;;;;;;16.48;7.55;;;;;;;10.71;100.00;101914.63;5112823;28;20034;-43
2022/08/28 05:08:26;;;;;;;23.50;8.82;;;;;;;10.74;100.00;101918.16;5112706;28;20016;-46
2022/08/28 05:10:53;;;;;;;16.60;7.72;;;;;;;10.75;100.00;101923.38;5116375;27;20024;-45
2022/08/28 05:13:20;;;;;;;20.15;7.93;;;;;;;10.75;100.00;101923.38;5116030;28;20383;-44
2022/08/28 05:15:48;;;;;;;23.08;8.45;;;;;;;10.76;100.00;101920.00;5115459;28;20078;-44
2022/08/28 05:18:15;;;;;;;16.20;7.30;;;;;;;10.76;100.00;101930.31;5116160;28;20531;-41
2022/08/28 05:20:44;;;;;;;20.83;7.63;;;;;;;10.75;100.00;101928.53;5115921;28;20081;-46
2022/08/28 05:23:09;;;;;;;17.70;7.93;;;;;;;10.81;100.00;101935.69;5115234;28;20390;-42
2022/08/28 05:25:38;;;;;;;22.55;8.38;;;;;;;10.78;100.00;101939.03;5115786;28;20471;-43
2022/08/28 05:28:04;;;;;;;15.93;7.72;;;;;;;10.79;100.00;101934.72;5116229;28;20102;-45
2022/08/28 05:30:30;;;;;;;19.73;7.45;;;;;;;10.79;100.00;101935.59;5114934;28;20382;-41
2022/08/28 05:32:55;;;;;;;16.17;7.82;;;;;;;10.80;100.00;101937.38;5116015;28;20098;-43
2022/08/28 05:35:21;;;;;;;18.05;8.38;;;;;;;10.84;100.00;101941.84;5115711;28;20466;-42
2022/08/28 05:37:46;;;;;;;16.52;7.93;;;;;;;10.82;100.00;101951.22;5114745;28;20032;-45
2022/08/28 05:40:11;;;;;;;17.48;7.35;;;;;;;10.82;100.00;101948.66;5115595;28;20072;-44
2022/08/28 05:42:37;;;;;;;17.67;8.00;;;;;;;10.81;100.00;101944.31;5115566;28;20020;-41
2022/08/28 05:45:04;;;;;;;19.73;8.57;;;;;;;10.82;100.00;101952.91;5114962;28;20059;-47
2022/08/28 05:47:31;;;;;;;16.35;8.05;;;;;;;10.83;100.00;101941.78;5115346;28;20051;-46
2022/08/28 05:49:57;;;;;;;20.60;9.18;;;;;;;10.84;100.00;101943.56;5115875;27;20099;-46
2022/08/28 05:52:22;;;;;;;16.98;8.52;;;;;;;10.84;100.00;101941.84;5114641;28;20103;-45
2022/08/28 05:54:47;;;;;;;17.10;8.02;;;;;;;10.90;100.00;101940.38;5115323;28;20084;-47
2022/08/28 05:57:13;;;;;;;17.45;8.10;;;;;;;10.93;100.00;101948.28;5115102;28;20119;-44
2022/08/28 05:59:38;;;;;;;19.75;8.57;;;;;;;11.00;100.00;101948.63;5114755;28;20386;-43
2022/08/28 06:02:04;;;;;;;17.45;9.00;;;;;;;11.10;100.00;101951.59;5115417;28;20054;-46
2022/08/28 06:04:29;;;;;;;19.35;8.57;;;;;;;11.17;100.00;101943.34;5113995;28;20067;-46
2022/08/28 06:06:54;;;;;;;16.77;8.40;;;;;;;11.24;100.00;101945.38;5115285;28;20024;-46
2022/08/28 06:09:23;;;;;;;19.35;8.80;;;;;;;11.33;100.00;101955.22;5114892;28;20057;-42
2022/08/28 06:11:49;;;;;;;16.52;8.18;;;;;;;11.43;100.00;101962.56;5114432;28;20015;-42
2022/08/28 06:14:19;;;;;;;19.48;9.25;;;;;;;11.52;100.00;101956.91;5115029;27;20371;-41
2022/08/28 06:16:47;;;;;;;21.13;8.90;;;;;;;11.62;100.00;101963.34;5115012;28;20026;-45
2022/08/28 06:19:13;;;;;;;21.38;8.65;;;;;;;11.75;100.00;101963.06;5113962;28;20035;-44
2022/08/28 06:21:40;;;;;;;17.63;8.60;;;;;;;11.84;100.00;101962.59;5114679;28;20027;-45
2022/08/28 06:24:06;;;;;;;16.57;7.90;;;;;;;11.93;100.00;101954.31;5114696;28;20024;-43
2022/08/28 06:26:32;;;;;;;17.80;8.50;;;;;;;12.07;100.00;101957.50;5113808;28;20273;-41
2022/08/28 06:29:06;;;;;;;20.98;8.70;;;;;;;12.18;100.00;101967.47;5114921;28;20178;-47
2022/08/28 06:31:32;;;;;;;18.77;8.05;;;;;;;12.31;100.00;101968.84;5114565;27;20034;-48
2022/08/28 06:33:59;;;;;;;15.55;8.10;;;;;;;12.48;100.00;101964.34;5113965;28;20020;-42
2022/08/28 06:36:26;;;;;;;17.17;7.13;;;;;;;12.61;99.72;101970.88;5114340;28;20462;-46
2022/08/28 06:38:53;;;;;;;19.10;7.20;;;;;;;12.76;98.78;101962.84;5114752;28;20044;-45
2022/08/28 06:41:19;;;;;;;16.67;7.50;;;;;;;12.89;98.21;101973.69;5113779;28;20029;-45
2022/08/28 06:43:44;;;;;;;15.07;7.47;;;;;;;13.02;97.78;101973.31;5114371;28;20109;-43
2022/08/28 06:46:09;;;;;;;19.35;6.68;;;;;;;13.16;96.76;101974.69;5114554;28;20119;-48
2022/08/28 06:48:35;;;;;;;19.73;7.15;;;;;;;13.29;95.93;101975.16;5113316;28;20030;-47
2022/08/28 06:51:05;;;;;;;18.52;6.85;;;;;;;13.43;95.22;101984.34;5114206;28;20023;-45
2022/08/28 06:53:30;;;;;;;18.35;7.47;;;;;;;13.57;94.88;101979.66;5113630;28;20019;-42
2022/08/28 06:56:07;;;;;;;15.13;6.53;;;;;;;13.71;92.71;101974.97;5114161;28;20059;-43
2022/08/28 06:58:35;;;;;;;16.90;6.68;;;;;;;13.88;93.43;101985.00;5113946;28;20054;-47
2022/08/28 07:01:07;;;;;;;18.50;6.22;;;;;;;13.99;92.18;101981.09;5113308;28;20347;-42
2022/08/28 07:03:33;;;;;;;12.98;5.57;;;;;;;14.13;91.25;101982.41;5113825;28;20066;-44
2022/08/28 07:05:59;;;;;;;14.15;5.68;;;;;;;14.27;90.89;101985.47;5114220;28;20106;-47
2022/08/28 07:08:26;;;;;;;12.57;5.28;;;;;;;14.41;89.34;101982.44;5113173;28;20015;-47
2022/08/28 07:10:52;;;;;;;13.73;4.83;;;;;;;14.52;88.22;101980.19;5114126;28;20016;-47
2022/08/28 07:13:18;;;;;;;15.93;4.80;;;;;;;14.59;86.63;101977.84;5113978;27;20019;-46
2022/08/28 07:15:44;;;;;;;19.27;5.03;;;;;;;14.72;86.91;101976.53;5113139;28;20121;-47
2022/08/28 07:18:09;;;;;;;13.25;5.10;;;;;;;14.84;85.79;101980.34;5113723;28;20128;-43
2022/08/28 07:20:34;;;;;;;16.27;5.63;;;;;;;14.93;84.80;101983.22;5113716;28;20023;-45
2022/08/28 07:23:00;;;;;;;17.15;4.85;;;;;;;15.02;84.34;101986.09;5112759;28;20119;-42
2022/08/28 07:25:25;;;;;;;17.15;4.28;;;;;;;15.14;83.51;101975.16;5113622;28;20028;-42
2022/08/28 07:27:50;;;;;;;15.30;4.40;;;;;;;15.26;83.28;101985.03;5114026;28;20031;-42
2022/08/28 07:30:16;;;;;;;14.38;4.25;;;;;;;15.35;82.08;101989.59;5112629;27;20348;-46
2022/08/28 07:32:42;;;;;;;11.02;3.90;;;;;;;15.42;80.63;101992.41;5112778;28;20043;-46
2022/08/28 07:35:08;;;;;;;11.80;4.00;;;;;;;15.51;80.00;101986.59;5113527;28;20020;-48
2022/08/28 07:37:33;;;;;;;17.42;4.07;;;;;;;15.63;80.77;101988.66;5112548;28;20069;-42
2022/08/28 07:39:58;;;;;;;15.55;4.43;;;;;;;15.70;79.41;101992.28;5113645;28;20467;-48
2022/08/28 07:45:08;;;;;;;11.38;3.97;;;;;;;15.96;78.93;102000.81;5113094;28;20135;-46
2022/08/28 07:47:33;;;;;;;11.80;3.80;;;;;;;16.08;77.96;101995.91;5113082;28;20073;-42
2022/08/28 07:50:00;;;;;;;11.43;3.50;;;;;;;16.23;76.69;102000.63;5112781;28;20065;-48
2022/08/28 07:52:26;;;;;;;10.93;3.58;;;;;;;16.38;75.19;101999.25;5113270;28;20046;-42
2022/08/28 07:54:53;;;;;;;9.40;3.20;;;;;;;16.42;74.37;102007.16;5113436;28;20020;-42
2022/08/28 07:57:20;;;;;;;9.82;3.00;;;;;;;16.50;73.96;102006.47;5112474;28;20069;-42
2022/08/28 07:59:46;;;;;;;11.03;3.13;;;;;;;16.86;74.48;102003.84;5113189;28;20518;-45
2022/08/28 08:02:11;;;;;;;11.55;2.97;;;;;;;16.91;72.38;102011.75;5113416;28;20281;-43
2022/08/28 08:04:36;;;;;;;12.68;3.20;;;;;;;16.94;71.61;102006.66;5112276;28;20037;-47
2022/08/28 08:07:03;;;;;;;10.77;3.05;;;;;;;16.98;72.01;102008.47;5113319;28;20027;-43
2022/08/28 08:09:28;;;;;;;10.25;2.50;;;;;;;16.98;70.02;102012.78;5112929;28;20424;-48
2022/08/28 08:11:55;;;;;;;13.13;2.63;;;;;;;17.05;69.11;102020.75;5112396;28;20471;-46
2022/08/28 08:14:21;;;;;;;10.73;2.78;;;;;;;17.09;69.22;102022.59;5112926;28;20028;-42
2022/08/28 08:16:47;;;;;;;12.77;2.72;;;;;;;17.20;67.75;102014.13;5113257;28;20027;-42
2022/08/28 08:19:14;;;;;;;9.10;2.53;;;;;;;17.15;66.84;102018.38;5112641;28;20027;-42
2022/08/28 08:21:45;;;;;;;13.25;2.90;;;;;;;17.26;67.63;102019.44;5112734;28;20034;-46
2022/08/28 08:24:14;;;;;;;9.23;2.13;;;;;;;17.48;66.84;102022.50;5113128;28;20040;-46
2022/08/28 08:26:44;;;;;;;10.60;2.45;;;;;;;17.63;66.19;102025.41;5112017;28;20022;-45
2022/08/28 08:29:11;;;;;;;10.73;2.13;;;;;;;17.63;65.42;102021.94;5112966;28;20028;-44
2022/08/28 08:31:36;;;;;;;11.45;2.75;;;;;;;17.66;65.00;102025.44;5112732;28;20371;-45
2022/08/28 08:34:03;;;;;;;8.55;2.08;;;;;;;17.80;64.58;102025.72;5112317;28;20027;-44
2022/08/28 08:36:31;;;;;;;6.88;2.00;;;;;;;17.64;64.41;102016.75;5112757;28;20024;-48
2022/08/28 08:38:57;;;;;;;10.93;2.13;;;;;;;17.79;64.24;102026.56;5112844;28;20044;-47
2022/08/28 08:41:47;;;;;;;6.30;2.10;;;;;;;17.87;63.74;102018.88;5111902;28;20030;-47
2022/08/28 08:44:27;;;;;;;8.32;2.30;;;;;;;17.82;65.67;102036.16;5116923;28;20032;-47
2022/08/28 08:47:05;;;;;;;5.78;2.00;;;;;;;17.68;64.14;102028.97;5116098;28;20052;-42
2022/08/28 08:49:35;;;;;;;;;;;;;;;17.93;67.41;102019.94;5116790;28;20051;-44
2022/08/28 08:52:25;;;;;;;8.50;2.17;;;;;;;18.20;64.03;102022.97;5116659;28;19938;-46
2022/08/28 08:55:15;;;;;;;8.57;2.30;;;;;;;18.29;63.89;102030.94;5115984;28;20045;-46
2022/08/28 08:57:43;;;;;;;6.65;2.38;;;;;;;18.42;61.59;102025.09;5116354;28;20036;-45
2022/08/28 09:00:10;;;;;;;9.30;2.40;;;;;;;18.34;61.16;102020.59;5115790;27;20058;-43
2022/08/28 09:02:42;;;;;;;8.32;2.20;;;;;;;18.42;61.81;102018.97;5116042;28;20024;-47
2022/08/28 09:05:21;;;;;;;9.98;2.40;;;;;;;18.72;61.23;102018.56;5116624;28;20055;-45
2022/08/28 09:08:01;;;;;;;7.88;2.40;;;;;;;19.14;60.20;102018.31;5115666;28;20105;-47
2022/08/28 09:10:43;;;;;;;10.65;1.75;;;;;;;19.40;60.96;102010.75;5116186;28;20019;-47
2022/08/28 09:13:59;;;;;;;9.15;2.30;;;;;;;19.17;60.86;102021.84;5116500;28;20038;-47
2022/08/28 09:16:37;;;;;;;10.53;2.20;;;;;;;18.63;59.23;102021.06;5110734;28;20036;-42
2022/08/28 09:19:03;;;;;;;6.32;2.00;;;;;;;18.40;59.20;102024.19;5116133;28;20047;-43
2022/08/28 09:21:33;;;;;;;8.75;2.35;;;;;;;18.41;60.09;102020.72;5115210;27;20016;-43
2022/08/28 09:24:07;;;;;;;10.60;2.30;;;;;;;18.30;59.28;102030.09;5116120;28;20084;-45
2022/08/28 09:26:32;;;;;;;7.95;2.05;;;;;;;18.34;60.48;102021.47;5115854;28;20026;-42
2022/08/28 09:29:05;;;;;;;7.18;1.90;;;;;;;18.22;59.62;102027.38;5115154;28;20028;-43
2022/08/28 09:31:40;;;;;;;9.00;2.30;;;;;;;18.29;61.11;102023.13;5115651;28;20463;-43
2022/08/28 09:34:25;;;;;;;8.73;2.08;;;;;;;18.26;61.75;102025.69;5116033;28;20034;-45
2022/08/28 09:36:52;;;;;;;7.05;2.20;;;;;;;18.38;61.12;102020.66;5115207;28;20104;-47
2022/08/28 09:39:30;;;;;;;8.10;2.00;;;;;;;18.98;58.99;102018.09;5115607;28;20040;-43
2022/08/28 09:45:17;;;;;;;6.97;1.85;;;;;;;20.39;55.67;102020.44;5115997;28;20501;-43
2022/08/28 09:47:47;;;;;;;7.75;2.08;;;;;;;21.27;51.90;102020.09;5115405;28;20027;-42
2022/08/28 09:50:17;;;;;;;6.20;2.17;;;;;;;22.04;49.58;102016.81;5114702;28;20468;-44
2022/08/28 09:52:42;;;;;;;6.85;2.33;;;;;;;23.06;47.73;102016.69;5115299;28;20031;-43
2022/08/28 09:55:11;;;;;;;7.03;2.28;;;;;;;23.10;45.72;102014.88;5114851;28;20020;-44
2022/08/28 09:57:41;;;;;;;9.20;2.35;;;;;;;23.51;46.09;102011.19;5114403;28;20055;-43
2022/08/28 10:00:07;;;;;;;7.05;2.20;;;;;;;22.69;45.54;102016.78;5115607;28;20099;-44
2022/08/28 10:03:18;;;;;;;7.18;2.20;;;;;;;22.65;50.08;102021.16;5115099;28;20103;-42
2022/08/28 10:06:03;;;;;;;9.10;2.47;;;;;;;22.15;48.49;102024.69;5114115;28;20428;-47
2022/08/28 10:08:45;;;;;;;7.13;2.20;;;;;;;21.29;49.30;102021.00;5114947;28;20460;-44
2022/08/28 10:11:21;;;;;;;6.88;2.00;;;;;;;21.32;50.24;102025.38;5114462;28;20082;-45
2022/08/28 10:14:11;;;;;;;6.25;2.20;;;;;;;20.92;51.72;102026.06;5115229;28;20051;-47
2022/08/28 10:16:55;;;;;;;11.82;2.28;;;;;;;21.49;51.54;102033.31;5114870;28;20042;-42
2022/08/28 10:19:36;;;;;;;12.82;2.42;;;;;;;21.57;50.73;102022.88;5114111;27;20250;-47
2022/08/28 10:22:24;;;;;;;7.22;1.88;;;;;;;22.23;49.92;102022.91;5115192;28;20023;-45
2022/08/28 10:25:08;;;;;;;6.90;1.60;;;;;;;23.86;44.24;102020.66;5114216;28;20040;-42
2022/08/28 10:27:50;;;;;;;10.20;1.95;;;;;;;24.42;42.69;102013.16;5114586;28;20030;-46
2022/08/28 10:30:20;;;;;;;6.15;1.80;;;;;;;25.83;39.31;102008.81;5115010;28;20032;-48
2022/08/28 10:33:27;;;;;;;6.20;1.92;;;;;;;26.85;40.83;102014.13;5114036;28;20027;-44
2022/08/28 10:36:06;;;;;;;5.53;1.75;;;;;;;27.79;38.33;102013.84;5114260;28;20036;-43
2022/08/28 10:38:43;;;;;;;7.88;1.67;;;;;;;27.81;34.44;102004.97;5114346;28;20093;-46
2022/08/28 10:41:16;;;;;;;6.90;1.85;;;;;;;28.06;33.20;102007.88;5114694;28;20111;-47
2022/08/28 10:43:50;;;;;;;4.65;1.63;;;;;;;27.48;35.47;102010.13;5114547;28;20046;-43
2022/08/28 10:46:23;;;;;;;5.75;1.70;;;;;;;27.48;35.44;102010.13;5113696;28;20032;-47
2022/08/28 10:48:57;;;;;;;6.18;2.00;;;;;;;26.45;37.17;102013.94;5114198;28;20016;-49
2022/08/28 10:51:42;;;;;;;7.88;1.75;;;;;;;25.26;39.94;102014.91;5114437;28;20028;-48
2022/08/28 10:54:20;;;;;;;5.13;1.58;;;;;;;24.72;39.01;102023.47;5113987;28;20024;-48
2022/08/28 10:56:57;;;;;;;7.45;1.75;;;;;;;24.42;40.21;102023.72;5114142;28;20372;-48
2022/08/28 10:59:24;;;;;;;7.13;1.70;;;;;;;23.84;40.32;102011.88;5114395;28;20107;-43
2022/08/28 11:01:51;;;;;;;5.68;1.83;;;;;;;23.56;40.95;102019.09;5113515;27;20094;-47
2022/08/28 11:04:22;;;;;;;6.43;1.83;;;;;;;22.98;41.43;102019.34;5114034;28;20479;-48
2022/08/28 11:07:40;;;;;;;6.05;1.70;;;;;;;24.10;42.67;102009.06;5112338;28;20019;-47
2022/08/28 11:10:43;;;;;;;6.57;1.75;;;;;;;26.18;40.12;102017.09;5107404;28;20032;-46
2022/08/28 11:13:09;;;;;;;5.47;1.50;;;;;;;26.85;34.83;102014.13;5114012;28;20057;-45
2022/08/28 11:15:35;;;;;;;6.50;1.58;;;;;;;27.77;33.43;102009.47;5112835;28;20089;-43
2022/08/28 11:18:12;;;;;;;7.65;1.70;;;;;;;28.54;34.33;102014.56;5113829;28;20104;-46
2022/08/28 11:20:41;;;;;;;8.45;1.85;;;;;;;27.64;32.78;102017.72;5113724;28;20030;-48
2022/08/28 11:23:14;;;;;;;5.53;1.80;;;;;;;28.25;32.09;102013.59;5113044;28;20024;-43
2022/08/28 11:25:53;;;;;;;7.80;1.90;;;;;;;28.45;33.12;102009.53;5113597;28;20080;-44
2022/08/28 11:28:24;;;;;;;5.50;1.58;;;;;;;28.02;33.03;102005.34;5112702;28;20023;-43
2022/08/28 11:31:04;;;;;;;7.22;1.58;;;;;;;27.18;34.58;102011.66;5113749;28;20372;-46
2022/08/28 11:33:51;;;;;;;7.15;1.90;;;;;;;25.49;34.68;102019.88;5113378;28;20098;-45
2022/08/28 11:36:19;;;;;;;5.35;1.30;;;;;;;26.24;35.69;102022.28;5112859;28;20107;-43